Time;durP1;ratioP1;P1;durP2;ratioP2;P2;SDS_P1;SDS_P2;PMS_P1;PMS_P2;Temp;Humidity;BMP_temperature;BMP_pressure;BME280_temperature;BME280_humidity;BME280_pressure;Samples;Min_cycle;Max_cycle;Signal;HPM_P1;HPM_P2
2022/01/17 00:01:28;;;;;;;16.83;10.87;;;;;;;-141.59;100.00;61776.25;4947356;28;20213;-82
2022/01/17 00:03:55;;;;;;;19.13;10.57;;;;;;;-141.59;100.00;61776.25;4961864;28;20240;-81
2022/01/17 00:06:22;;;;;;;16.03;10.07;;;;;;;-141.59;100.00;61776.25;4960127;28;20224;-82
2022/01/17 00:08:50;;;;;;;16.50;10.20;;;;;;;-141.59;100.00;61776.25;4966506;28;20271;-82
2022/01/17 00:11:18;;;;;;;19.33;10.63;;;;;;;-141.59;100.00;61776.25;4961189;28;20200;-83
2022/01/17 00:13:46;;;;;;;17.30;10.57;;;;;;;-141.59;100.00;61776.25;4946266;28;20208;-82
2022/01/17 00:16:18;;;;;;;18.10;11.50;;;;;;;-141.59;100.00;61776.25;4967814;28;20212;-82
2022/01/17 00:19:28;;;;;;;17.73;10.20;;;;;;;-141.59;100.00;61776.25;4948136;28;20205;-82
2022/01/17 00:21:53;;;;;;;18.43;10.70;;;;;;;-141.59;100.00;61776.25;4943528;29;20210;-82
2022/01/17 00:24:21;;;;;;;18.53;10.13;;;;;;;-141.59;100.00;61776.25;4949391;28;20217;-81
2022/01/17 00:26:52;;;;;;;15.83;10.53;;;;;;;-141.59;100.00;61776.25;4948814;28;20205;-82
2022/01/17 00:29:19;;;;;;;20.30;10.70;;;;;;;-141.59;100.00;61776.25;4947656;28;20223;-83
2022/01/17 00:31:46;;;;;;;18.37;10.60;;;;;;;-141.59;100.00;61776.25;4949433;28;20224;-82
2022/01/17 00:34:13;;;;;;;16.43;10.37;;;;;;;-141.59;100.00;61776.25;4966416;28;20292;-83
2022/01/17 00:36:40;;;;;;;17.00;10.10;;;;;;;-141.59;100.00;61776.25;4951662;28;20209;-82
2022/01/17 00:39:07;;;;;;;18.90;10.63;;;;;;;-141.59;100.00;61776.25;4966281;28;20295;-82
2022/01/17 00:41:35;;;;;;;16.10;10.17;;;;;;;-141.59;100.00;61776.25;4952428;28;20419;-83
2022/01/17 00:44:04;;;;;;;15.87;10.10;;;;;;;-141.59;100.00;61776.25;4965286;28;20236;-82
2022/01/17 00:46:31;;;;;;;19.37;11.50;;;;;;;-141.59;100.00;61776.25;4950084;28;20229;-82
2022/01/17 00:48:58;;;;;;;19.83;11.03;;;;;;;-141.59;100.00;61776.25;4950652;28;20215;-82
2022/01/17 00:51:25;;;;;;;18.63;10.80;;;;;;;-141.59;100.00;61776.25;4946374;28;20212;-81
2022/01/17 00:53:52;;;;;;;18.90;10.87;;;;;;;-141.59;100.00;61776.25;4953622;28;20210;-82
2022/01/17 00:56:21;;;;;;;18.40;11.40;;;;;;;-141.59;100.00;61776.25;4950144;28;20307;-82
2022/01/17 00:58:48;;;;;;;17.77;10.47;;;;;;;-141.59;100.00;61776.25;4955209;28;20308;-83
2022/01/17 01:01:17;;;;;;;17.17;10.40;;;;;;;-141.59;100.00;61776.25;4947093;28;20297;-82
2022/01/17 01:03:44;;;;;;;16.50;10.30;;;;;;;-141.59;100.00;61776.25;4942506;28;20256;-82
2022/01/17 01:06:12;;;;;;;19.83;11.27;;;;;;;-141.59;100.00;61776.25;4954631;28;20237;-83
2022/01/17 01:08:39;;;;;;;18.17;10.53;;;;;;;-141.59;100.00;61776.25;4949675;28;20243;-84
2022/01/17 01:11:06;;;;;;;18.67;10.53;;;;;;;-141.59;100.00;61776.25;4963331;28;20210;-83
2022/01/17 01:13:33;;;;;;;19.67;11.83;;;;;;;-141.59;100.00;61776.25;4949737;28;20259;-83
2022/01/17 01:16:22;;;;;;;19.80;11.17;;;;;;;-141.59;100.00;61776.25;4961592;28;20204;-82
2022/01/17 01:29:48;;;;;;;20.40;11.80;;;;;;;-141.59;100.00;61776.25;4942554;28;20210;-82
2022/01/17 01:32:20;;;;;;;20.07;11.47;;;;;;;-141.59;100.00;61776.25;4959193;28;20206;-82
2022/01/17 01:34:52;;;;;;;20.73;11.20;;;;;;;-141.59;100.00;61776.25;4960264;28;20216;-83
2022/01/17 01:37:19;;;;;;;22.63;11.73;;;;;;;-141.59;100.00;61776.25;4963284;28;20212;-83
2022/01/17 01:39:49;;;;;;;17.80;11.27;;;;;;;-141.59;100.00;61776.25;4947915;28;20215;-83
2022/01/17 01:42:18;;;;;;;19.37;11.37;;;;;;;-141.59;100.00;61776.25;4945270;28;20202;-82
2022/01/17 01:44:47;;;;;;;24.13;11.87;;;;;;;-141.59;100.00;61776.25;4938046;28;20225;-82
2022/01/17 01:47:15;;;;;;;18.13;10.87;;;;;;;-141.59;100.00;61776.25;4962059;28;20240;-82
2022/01/17 01:49:43;;;;;;;17.87;11.37;;;;;;;-141.59;100.00;61776.25;4937710;28;20496;-83
2022/01/17 01:52:11;;;;;;;18.03;10.63;;;;;;;-141.59;100.00;61776.25;4959360;28;20236;-83
2022/01/17 01:54:38;;;;;;;19.57;11.03;;;;;;;-141.59;100.00;61776.25;4946911;28;20246;-82
2022/01/17 01:57:06;;;;;;;17.80;10.23;;;;;;;-141.59;100.00;61776.25;4966209;28;20264;-83
2022/01/17 01:59:33;;;;;;;20.70;11.40;;;;;;;-141.59;100.00;61776.25;4948687;28;20216;-82
2022/01/17 02:02:00;;;;;;;17.30;9.70;;;;;;;-141.59;100.00;61776.25;4949241;28;20209;-84
2022/01/17 02:04:27;;;;;;;18.00;10.70;;;;;;;-141.59;100.00;61776.25;4949795;28;20212;-82
2022/01/17 02:06:54;;;;;;;16.80;9.60;;;;;;;-141.59;100.00;61776.25;4942417;28;20236;-82
2022/01/17 02:09:23;;;;;;;18.57;11.40;;;;;;;-141.59;100.00;61776.25;4964181;28;20260;-82
2022/01/17 02:11:51;;;;;;;18.37;10.83;;;;;;;-141.59;100.00;61776.25;4956395;28;20205;-83
2022/01/17 02:14:19;;;;;;;18.30;11.07;;;;;;;-141.59;100.00;61776.25;4961161;28;20206;-83
2022/01/17 02:16:49;;;;;;;17.43;11.30;;;;;;;-141.59;100.00;61776.25;4943512;28;20212;-82
2022/01/17 02:19:20;;;;;;;16.13;9.97;;;;;;;-141.59;100.00;61776.25;4948141;28;20260;-83
2022/01/17 02:21:50;;;;;;;19.40;11.13;;;;;;;-141.59;100.00;61776.25;4947108;28;20332;-83
2022/01/17 02:24:20;;;;;;;18.93;11.00;;;;;;;-141.59;100.00;61776.25;4961079;28;20237;-83
2022/01/17 02:26:49;;;;;;;15.77;9.97;;;;;;;-141.59;100.00;61776.25;4945143;28;20263;-83
2022/01/17 02:29:16;;;;;;;18.33;10.27;;;;;;;-141.59;100.00;61776.25;4947279;28;20205;-82
2022/01/17 02:31:44;;;;;;;20.73;11.30;;;;;;;-141.59;100.00;61776.25;4946745;28;20227;-83
2022/01/17 02:34:12;;;;;;;18.07;10.23;;;;;;;-141.59;100.00;61776.25;4948166;28;20209;-82
2022/01/17 02:36:41;;;;;;;18.60;11.10;;;;;;;-141.59;100.00;61776.25;4962870;28;20214;-82
2022/01/17 02:39:09;;;;;;;20.60;10.33;;;;;;;-141.59;100.00;61776.25;4944441;28;20202;-82
2022/01/17 02:41:39;;;;;;;16.83;10.33;;;;;;;-141.59;100.00;61776.25;4955847;28;20214;-83
2022/01/17 02:44:07;;;;;;;18.90;10.93;;;;;;;-141.59;100.00;61776.25;4945004;28;20208;-83
2022/01/17 02:46:35;;;;;;;19.33;11.10;;;;;;;-141.59;100.00;61776.25;4946731;28;20316;-83
2022/01/17 02:49:05;;;;;;;17.70;10.47;;;;;;;-141.59;100.00;61776.25;4962210;28;20261;-82
2022/01/17 02:51:33;;;;;;;19.87;11.03;;;;;;;-141.59;100.00;61776.25;4946688;28;20216;-83
2022/01/17 02:54:01;;;;;;;18.20;10.13;;;;;;;-141.59;100.00;61776.25;4966179;28;20216;-82
2022/01/17 02:56:29;;;;;;;16.53;10.07;;;;;;;-141.59;100.00;61776.25;4940371;28;20202;-82
2022/01/17 02:58:56;;;;;;;15.37;9.17;;;;;;;-141.59;100.00;61776.25;4938674;28;20243;-82
2022/01/17 03:01:26;;;;;;;17.87;10.17;;;;;;;-141.59;100.00;61776.25;4958357;28;20205;-82
2022/01/17 03:03:54;;;;;;;18.33;10.30;;;;;;;-141.59;100.00;61776.25;4946316;28;20213;-83
2022/01/17 03:06:22;;;;;;;15.73;8.90;;;;;;;-141.59;100.00;61776.25;4944553;28;20225;-84
2022/01/17 03:08:50;;;;;;;14.50;9.57;;;;;;;-141.59;100.00;61776.25;4945201;28;20232;-82
2022/01/17 03:11:20;;;;;;;14.10;9.70;;;;;;;-141.59;100.00;61776.25;4944419;28;20476;-82
2022/01/17 03:13:50;;;;;;;16.50;10.00;;;;;;;-141.59;100.00;61776.25;4947141;28;20224;-83
2022/01/17 03:16:22;;;;;;;16.90;9.70;;;;;;;-141.59;100.00;61776.25;4957887;28;20240;-82
2022/01/17 03:18:51;;;;;;;18.50;9.53;;;;;;;-141.59;100.00;61776.25;4936489;28;20217;-83
2022/01/17 03:21:20;;;;;;;15.50;9.60;;;;;;;-141.59;100.00;61776.25;4948374;28;20205;-83
2022/01/17 03:23:49;;;;;;;15.83;9.73;;;;;;;-141.59;100.00;61776.25;4936505;28;20458;-82
2022/01/17 03:26:16;;;;;;;16.60;10.23;;;;;;;-141.59;100.00;61776.25;4961833;28;20227;-82
2022/01/17 03:28:44;;;;;;;18.50;10.00;;;;;;;-141.59;100.00;61776.25;4942293;28;20210;-82
2022/01/17 03:31:13;;;;;;;16.97;9.80;;;;;;;-141.59;100.00;61776.25;4946658;28;20283;-82
2022/01/17 03:33:40;;;;;;;16.57;9.73;;;;;;;-141.59;100.00;61776.25;4948913;28;20209;-82
2022/01/17 03:36:07;;;;;;;18.63;9.83;;;;;;;-141.59;100.00;61776.25;4947656;28;20244;-83
2022/01/17 03:38:35;;;;;;;16.00;9.87;;;;;;;-141.59;100.00;61776.25;4936596;28;20215;-82
2022/01/17 03:41:05;;;;;;;15.30;10.00;;;;;;;-141.59;100.00;61776.25;4946796;28;20216;-83
2022/01/17 03:43:32;;;;;;;17.70;9.53;;;;;;;-141.59;100.00;61776.25;4965658;28;20208;-83
2022/01/17 03:45:59;;;;;;;17.07;9.73;;;;;;;-141.59;100.00;61776.25;4952949;28;20227;-82
2022/01/17 03:48:29;;;;;;;15.60;9.30;;;;;;;-141.59;100.00;61776.25;4967794;28;20201;-82
2022/01/17 03:50:58;;;;;;;17.97;10.40;;;;;;;-141.59;100.00;61776.25;4943602;28;20232;-82
2022/01/17 03:53:26;;;;;;;16.27;10.40;;;;;;;-141.59;100.00;61776.25;4948935;28;20215;-83
2022/01/17 03:55:54;;;;;;;16.27;10.23;;;;;;;-141.59;100.00;61776.25;4951491;28;20201;-83
2022/01/17 03:58:25;;;;;;;16.20;10.20;;;;;;;-141.59;100.00;61776.25;4945512;28;20378;-83
2022/01/17 04:00:55;;;;;;;17.03;10.70;;;;;;;-141.59;100.00;61776.25;4958063;28;20214;-83
2022/01/17 04:03:22;;;;;;;15.57;9.60;;;;;;;-141.59;100.00;61776.25;4948987;28;20204;-82
2022/01/17 04:05:51;;;;;;;17.73;9.77;;;;;;;-141.59;100.00;61776.25;4950356;28;20229;-83
2022/01/17 04:08:18;;;;;;;18.90;10.87;;;;;;;-141.59;100.00;61776.25;4964098;28;20242;-82
2022/01/17 04:10:47;;;;;;;17.77;10.50;;;;;;;-141.59;100.00;61776.25;4965186;28;20210;-82
2022/01/17 04:13:14;;;;;;;16.57;9.50;;;;;;;-141.59;100.00;61776.25;4945426;29;20205;-82
2022/01/17 04:15:41;;;;;;;17.53;10.20;;;;;;;-141.59;100.00;61776.25;4944471;28;20277;-83
2022/01/17 04:18:10;;;;;;;19.00;11.37;;;;;;;-141.59;100.00;61776.25;4947816;28;20237;-82
2022/01/17 04:20:39;;;;;;;20.50;9.87;;;;;;;-141.59;100.00;61776.25;4956059;28;20236;-82
2022/01/17 04:23:08;;;;;;;16.47;9.30;;;;;;;-141.59;100.00;61776.25;4962350;28;20288;-83
2022/01/17 04:25:37;;;;;;;14.97;9.13;;;;;;;-141.59;100.00;61776.25;4945662;28;20216;-83
2022/01/17 04:28:05;;;;;;;14.33;8.87;;;;;;;-141.59;100.00;61776.25;4945147;28;20288;-82
2022/01/17 04:30:37;;;;;;;16.70;9.50;;;;;;;-141.59;100.00;61776.25;4940468;28;20202;-82
2022/01/17 04:33:05;;;;;;;16.67;9.90;;;;;;;-141.59;100.00;61776.25;4948383;28;20304;-82
2022/01/17 04:35:32;;;;;;;14.87;9.13;;;;;;;-141.59;100.00;61776.25;4959204;28;20212;-82
2022/01/17 04:38:03;;;;;;;15.40;8.70;;;;;;;-141.59;100.00;61776.25;4942840;28;20210;-83
2022/01/17 04:40:35;;;;;;;15.77;9.30;;;;;;;-141.59;100.00;61776.25;4946925;29;20314;-82
2022/01/17 04:43:04;;;;;;;14.33;9.13;;;;;;;-141.59;100.00;61776.25;4942034;28;20217;-82
2022/01/17 04:45:32;;;;;;;17.63;10.03;;;;;;;-141.59;100.00;61776.25;4941325;28;20265;-82
2022/01/17 04:48:00;;;;;;;16.70;10.20;;;;;;;-141.59;100.00;61776.25;4946291;28;20218;-83
2022/01/17 04:50:29;;;;;;;17.03;9.63;;;;;;;-141.59;100.00;61776.25;4940143;28;20213;-83
2022/01/17 04:52:58;;;;;;;18.47;10.23;;;;;;;-141.59;100.00;61776.25;4940568;28;20213;-81
2022/01/17 04:55:27;;;;;;;18.53;10.10;;;;;;;-141.59;100.00;61776.25;4942770;28;20209;-82
2022/01/17 04:57:57;;;;;;;15.27;10.20;;;;;;;-141.59;100.00;61776.25;4958126;28;20296;-81
2022/01/17 05:00:25;;;;;;;15.97;10.00;;;;;;;-141.59;100.00;61776.25;4946848;28;20214;-82
2022/01/17 05:02:52;;;;;;;16.63;10.13;;;;;;;-141.59;100.00;61776.25;4944010;28;20215;-82
2022/01/17 05:05:21;;;;;;;18.50;11.23;;;;;;;-141.59;100.00;61776.25;4940352;28;20210;-81
2022/01/17 05:07:48;;;;;;;16.87;10.33;;;;;;;-141.59;100.00;61776.25;4945492;28;20245;-82
2022/01/17 05:10:18;;;;;;;19.80;10.50;;;;;;;-141.59;100.00;61776.25;4946212;28;20296;-83
2022/01/17 05:12:46;;;;;;;16.60;10.50;;;;;;;-141.59;100.00;61776.25;4945043;28;20233;-82
2022/01/17 05:15:27;;;;;;;20.13;11.33;;;;;;;-141.59;100.00;61776.25;4963018;28;20206;-82
2022/01/17 05:18:13;;;;;;;18.60;11.67;;;;;;;-141.59;100.00;61776.25;4944594;28;20336;-82
2022/01/17 05:20:41;;;;;;;16.87;10.63;;;;;;;-141.59;100.00;61776.25;4940923;28;20219;-82
2022/01/17 05:23:09;;;;;;;19.53;10.83;;;;;;;-141.59;100.00;61776.25;4959080;28;20214;-82
2022/01/17 05:25:36;;;;;;;16.57;10.33;;;;;;;-141.59;100.00;61776.25;4946254;28;20216;-82
2022/01/17 05:28:04;;;;;;;19.90;10.77;;;;;;;-141.59;100.00;61776.25;4944821;28;20273;-82
2022/01/17 05:30:32;;;;;;;21.07;10.03;;;;;;;-141.59;100.00;61776.25;4942969;28;20213;-81
2022/01/17 05:33:00;;;;;;;16.67;9.63;;;;;;;-141.59;100.00;61776.25;4945498;28;20209;-81
2022/01/17 05:35:28;;;;;;;17.63;10.77;;;;;;;-141.59;100.00;61776.25;4952887;28;20211;-81
2022/01/17 05:37:55;;;;;;;17.60;10.13;;;;;;;-141.59;100.00;61776.25;4944518;28;20205;-82
2022/01/17 05:40:23;;;;;;;17.10;10.30;;;;;;;-141.59;100.00;61776.25;4957362;28;20213;-82
2022/01/17 05:42:50;;;;;;;19.00;10.67;;;;;;;-141.59;100.00;61776.25;4956095;28;20244;-81
2022/01/17 05:45:18;;;;;;;19.03;10.73;;;;;;;-141.59;100.00;61776.25;4947323;28;20210;-82
2022/01/17 05:47:47;;;;;;;18.57;10.37;;;;;;;-141.59;100.00;61776.25;4943392;28;20321;-82
2022/01/17 05:50:16;;;;;;;17.33;10.07;;;;;;;-141.59;100.00;61776.25;4942492;28;20214;-82
2022/01/17 05:52:44;;;;;;;16.77;9.80;;;;;;;-141.59;100.00;61776.25;4946150;28;20488;-82
2022/01/17 05:55:13;;;;;;;18.37;10.70;;;;;;;-141.59;100.00;61776.25;4941263;28;20221;-82
2022/01/17 05:57:40;;;;;;;18.60;10.17;;;;;;;-141.59;100.00;61776.25;4942403;28;20213;-82
2022/01/17 06:00:11;;;;;;;17.80;10.10;;;;;;;-141.59;100.00;61776.25;4943735;28;20237;-81
2022/01/17 06:02:38;;;;;;;22.87;12.30;;;;;;;-141.59;100.00;61776.25;4944669;28;20213;-82
2022/01/17 06:05:08;;;;;;;17.17;9.83;;;;;;;-141.59;100.00;61776.25;4942625;28;20276;-82
2022/01/17 06:07:35;;;;;;;15.80;9.20;;;;;;;-141.59;100.00;61776.25;4944844;29;20254;-82
2022/01/17 06:10:03;;;;;;;16.73;10.57;;;;;;;-141.59;100.00;61776.25;4945770;28;20206;-82
2022/01/17 06:12:31;;;;;;;19.13;10.13;;;;;;;-141.59;100.00;61776.25;4942756;28;20213;-83
2022/01/17 06:14:58;;;;;;;16.50;9.73;;;;;;;-141.59;100.00;61776.25;4947702;28;20210;-81
2022/01/17 06:17:25;;;;;;;16.73;9.80;;;;;;;-141.59;100.00;61776.25;4941271;28;20289;-81
2022/01/17 06:19:52;;;;;;;17.03;9.40;;;;;;;-141.59;100.00;61776.25;4937696;28;20214;-81
2022/01/17 06:22:21;;;;;;;15.90;9.90;;;;;;;-141.59;100.00;61776.25;4938700;28;20202;-81
2022/01/17 06:24:48;;;;;;;16.20;9.53;;;;;;;-141.59;100.00;61776.25;4943266;28;20423;-82
2022/01/17 06:27:15;;;;;;;16.87;10.33;;;;;;;-141.59;100.00;61776.25;4938044;28;20226;-82
2022/01/17 06:29:43;;;;;;;19.13;11.20;;;;;;;-141.59;100.00;61776.25;4943058;28;20313;-82
2022/01/17 06:32:10;;;;;;;18.43;10.83;;;;;;;-141.59;100.00;61776.25;4955272;28;20205;-82
2022/01/17 06:34:37;;;;;;;18.03;10.23;;;;;;;-141.59;100.00;61776.25;4958382;28;20210;-82
2022/01/17 06:37:05;;;;;;;14.73;9.83;;;;;;;-141.59;100.00;61776.25;4943474;28;20253;-82
2022/01/17 06:39:33;;;;;;;15.53;9.53;;;;;;;-141.59;100.00;61776.25;4945156;28;20205;-81
2022/01/17 06:42:00;;;;;;;22.13;10.10;;;;;;;-141.59;100.00;61776.25;4961482;28;20233;-81
2022/01/17 06:44:28;;;;;;;19.20;11.40;;;;;;;-141.59;100.00;61776.25;4945004;29;20207;-81
2022/01/17 06:46:55;;;;;;;19.33;11.03;;;;;;;-141.59;100.00;61776.25;4938621;28;20222;-82
2022/01/17 06:49:22;;;;;;;23.03;11.13;;;;;;;-141.59;100.00;61776.25;4942434;28;20209;-82
2022/01/17 06:51:49;;;;;;;20.70;11.80;;;;;;;-141.59;100.00;61776.25;4940662;28;20343;-82
2022/01/17 06:54:16;;;;;;;20.50;10.87;;;;;;;-141.59;100.00;61776.25;4938453;28;20248;-82
2022/01/17 06:56:44;;;;;;;18.40;10.50;;;;;;;-141.59;100.00;61776.25;4936447;28;20280;-82
2022/01/17 06:59:12;;;;;;;18.60;10.93;;;;;;;-141.59;100.00;61776.25;4944323;28;20232;-82
2022/01/17 07:01:39;;;;;;;20.83;11.47;;;;;;;-141.59;100.00;61776.25;4939218;28;20209;-82
2022/01/17 07:04:07;;;;;;;33.73;17.47;;;;;;;-141.59;100.00;61776.25;4939817;28;20215;-82
2022/01/17 07:06:34;;;;;;;27.43;15.10;;;;;;;-141.59;100.00;61776.25;4938485;28;20230;-83
2022/01/17 07:09:05;;;;;;;30.20;16.73;;;;;;;-141.59;100.00;61776.25;4942154;28;20229;-83
2022/01/17 07:11:37;;;;;;;16.97;10.23;;;;;;;-141.59;100.00;61776.25;4939343;28;20209;-83
2022/01/17 07:14:08;;;;;;;16.83;9.50;;;;;;;-141.59;100.00;61776.25;4939482;28;20271;-83
2022/01/17 07:16:36;;;;;;;19.00;11.23;;;;;;;-141.59;100.00;61776.25;4943176;28;20209;-83
2022/01/17 07:19:03;;;;;;;16.93;10.30;;;;;;;-141.59;100.00;61776.25;4944418;29;20288;-83
2022/01/17 07:21:31;;;;;;;15.40;9.20;;;;;;;-141.59;100.00;61776.25;4939924;28;20241;-82
2022/01/17 07:23:58;;;;;;;17.57;9.63;;;;;;;-141.59;100.00;61776.25;4944903;29;20240;-82
2022/01/17 07:26:25;;;;;;;14.07;8.20;;;;;;;-141.59;100.00;61776.25;4943640;29;20202;-83
2022/01/17 07:28:52;;;;;;;13.83;7.77;;;;;;;-141.59;100.00;61776.25;4936679;28;20206;-82
2022/01/17 07:31:21;;;;;;;10.30;6.87;;;;;;;-141.59;100.00;61776.25;4956932;28;20248;-81
2022/01/17 07:33:48;;;;;;;12.73;6.37;;;;;;;-141.59;100.00;61776.25;4940895;28;20217;-82
2022/01/17 07:36:19;;;;;;;11.63;6.87;;;;;;;-141.59;100.00;61776.25;4945605;29;20214;-82
2022/01/17 07:38:47;;;;;;;12.40;7.53;;;;;;;-141.59;100.00;61776.25;4932521;29;20213;-82
2022/01/17 07:41:14;;;;;;;11.20;6.53;;;;;;;-141.59;100.00;61776.25;4944320;28;20228;-82
2022/01/17 07:43:42;;;;;;;15.23;7.60;;;;;;;-141.59;100.00;61776.25;4946220;29;20205;-82
2022/01/17 07:46:19;;;;;;;15.00;7.80;;;;;;;-141.59;100.00;61776.25;4935986;29;20273;-82
2022/01/17 07:49:09;;;;;;;12.60;7.00;;;;;;;-141.59;100.00;61776.25;4944073;28;20212;-82
2022/01/17 07:51:38;;;;;;;12.23;7.10;;;;;;;-141.59;100.00;61776.25;4957971;28;20225;-83
2022/01/17 07:54:05;;;;;;;9.80;6.70;;;;;;;-141.59;100.00;61776.25;4939850;28;20206;-82
2022/01/17 07:56:33;;;;;;;12.43;6.87;;;;;;;-141.59;100.00;61776.25;4955234;28;20275;-82
2022/01/17 07:59:00;;;;;;;10.87;7.03;;;;;;;-141.59;100.00;61776.25;4936610;28;20205;-83
2022/01/17 08:01:28;;;;;;;13.03;7.67;;;;;;;-141.59;100.00;61776.25;4943606;28;20294;-83
2022/01/17 08:03:56;;;;;;;13.13;7.50;;;;;;;-141.59;100.00;61776.25;4956840;28;20252;-82
2022/01/17 08:06:23;;;;;;;12.67;7.10;;;;;;;-141.59;100.00;61776.25;4942950;28;20320;-83
2022/01/17 08:08:50;;;;;;;13.63;7.17;;;;;;;-141.59;100.00;61776.25;4934391;28;20617;-83
2022/01/17 08:11:18;;;;;;;13.57;6.77;;;;;;;-141.59;100.00;61776.25;4923739;29;20207;-83
2022/01/17 08:13:46;;;;;;;11.43;7.10;;;;;;;-141.59;100.00;61776.25;4916569;29;20213;-83
2022/01/17 08:16:14;;;;;;;12.50;6.70;;;;;;;-141.59;100.00;61776.25;4938809;28;20222;-82
2022/01/17 08:18:42;;;;;;;11.07;6.53;;;;;;;-141.59;100.00;61776.25;4944361;28;20214;-82
2022/01/17 08:21:10;;;;;;;10.53;5.60;;;;;;;-141.59;100.00;61776.25;4938471;28;20210;-83
2022/01/17 08:23:37;;;;;;;10.87;6.30;;;;;;;-141.59;100.00;61776.25;4922246;29;20221;-82
2022/01/17 08:26:04;;;;;;;11.37;6.83;;;;;;;-141.59;100.00;61776.25;4939828;28;20273;-83
2022/01/17 08:28:32;;;;;;;11.47;6.97;;;;;;;-141.59;100.00;61776.25;4921242;29;20265;-82
2022/01/17 08:30:59;;;;;;;11.30;6.60;;;;;;;-141.59;100.00;61776.25;4940932;28;20221;-83
2022/01/17 08:33:26;;;;;;;11.20;6.63;;;;;;;-141.59;100.00;61776.25;4945323;28;20216;-82
2022/01/17 08:35:53;;;;;;;15.13;9.73;;;;;;;-141.59;100.00;61776.25;4940356;28;20237;-82
2022/01/17 08:38:23;;;;;;;18.57;10.77;;;;;;;-141.59;100.00;61776.25;4923794;29;20205;-82
2022/01/17 08:40:50;;;;;;;16.80;10.20;;;;;;;-141.59;100.00;61776.25;4924682;29;20261;-83
2022/01/17 08:43:17;;;;;;;14.87;9.10;;;;;;;-141.59;100.00;61776.25;4936995;28;20211;-83
2022/01/17 08:45:44;;;;;;;12.23;8.17;;;;;;;-141.59;100.00;61776.25;4923168;29;20348;-83
2022/01/17 08:48:12;;;;;;;10.67;6.80;;;;;;;-141.59;100.00;61776.25;4926854;29;20241;-83
2022/01/17 08:50:40;;;;;;;10.73;7.13;;;;;;;-141.59;100.00;61776.25;4924041;29;20230;-83
2022/01/17 08:53:10;;;;;;;10.83;6.93;;;;;;;-141.59;100.00;61776.25;4927325;29;20203;-83
2022/01/17 08:55:38;;;;;;;12.30;7.43;;;;;;;-141.59;100.00;61776.25;4944682;28;20222;-82
2022/01/17 08:58:06;;;;;;;13.93;8.50;;;;;;;-141.59;100.00;61776.25;4943372;28;20208;-82
2022/01/17 09:00:34;;;;;;;13.40;8.10;;;;;;;-141.59;100.00;61776.25;4942464;28;20198;-82
2022/01/17 09:03:02;;;;;;;14.73;8.30;;;;;;;-141.59;100.00;61776.25;4935639;28;20210;-82
2022/01/17 09:05:29;;;;;;;13.80;8.00;;;;;;;-141.59;100.00;61776.25;4926453;29;20220;-83
2022/01/17 09:07:56;;;;;;;11.83;7.63;;;;;;;-141.59;100.00;61776.25;4930266;29;20266;-82
2022/01/17 09:10:25;;;;;;;13.13;7.70;;;;;;;-141.59;100.00;61776.25;4940872;28;20221;-83
2022/01/17 09:12:56;;;;;;;13.77;7.90;;;;;;;-141.59;100.00;61776.25;4945614;28;20209;-82
2022/01/17 09:15:24;;;;;;;16.43;9.33;;;;;;;-141.59;100.00;61776.25;4943972;29;20206;-82
2022/01/17 09:17:51;;;;;;;13.43;8.30;;;;;;;-141.59;100.00;61776.25;4959459;28;20232;-82
2022/01/17 09:20:18;;;;;;;13.33;8.20;;;;;;;-141.59;100.00;61776.25;4944456;28;20288;-82
2022/01/17 09:22:45;;;;;;;13.17;8.60;;;;;;;-141.59;100.00;61776.25;4941176;28;20203;-82
2022/01/17 09:25:13;;;;;;;17.03;8.60;;;;;;;-141.59;100.00;61776.25;4954769;28;20212;-82
2022/01/17 09:27:41;;;;;;;14.63;8.60;;;;;;;-141.59;100.00;61776.25;4957937;28;20229;-82
2022/01/17 09:30:12;;;;;;;14.97;8.87;;;;;;;-141.59;100.00;61776.25;4942131;28;20284;-83
2022/01/17 09:32:40;;;;;;;13.90;8.07;;;;;;;-141.59;100.00;61776.25;4952561;28;20291;-82
2022/01/17 09:35:09;;;;;;;15.93;9.10;;;;;;;-141.59;100.00;61776.25;4937721;28;20213;-82
2022/01/17 09:37:37;;;;;;;15.50;9.03;;;;;;;-141.59;100.00;61776.25;4943819;28;20293;-82
2022/01/17 09:40:05;;;;;;;13.00;8.30;;;;;;;-141.59;100.00;61776.25;4945573;28;20296;-83
2022/01/17 09:42:35;;;;;;;12.43;7.83;;;;;;;-141.59;100.00;61776.25;4963884;28;20219;-82
2022/01/17 09:45:03;;;;;;;13.40;8.27;;;;;;;-141.59;100.00;61776.25;4940521;29;20267;-81
2022/01/17 09:47:34;;;;;;;10.70;7.80;;;;;;;-141.59;100.00;61776.25;4955882;28;20233;-82
2022/01/17 09:50:01;;;;;;;14.60;8.67;;;;;;;-141.59;100.00;61776.25;4942817;28;20212;-81
2022/01/17 09:52:35;;;;;;;14.07;7.73;;;;;;;-141.59;100.00;61776.25;4940403;28;20227;-82
2022/01/17 09:55:09;;;;;;;12.33;7.60;;;;;;;-141.59;100.00;61776.25;4946080;28;20212;-82
2022/01/17 09:57:42;;;;;;;10.80;7.50;;;;;;;-141.59;100.00;61776.25;4960473;28;20205;-83
2022/01/17 10:00:11;;;;;;;15.57;8.17;;;;;;;-141.59;100.00;61776.25;4937676;28;20213;-82
2022/01/17 10:02:43;;;;;;;12.90;8.00;;;;;;;-141.59;100.00;61776.25;4941366;28;20298;-82
2022/01/17 10:05:11;;;;;;;13.43;8.17;;;;;;;-141.59;100.00;61776.25;4935956;28;20300;-82
2022/01/17 10:08:01;;;;;;;12.07;7.70;;;;;;;-141.59;100.00;61776.25;4957704;28;20249;-82
2022/01/17 10:10:45;;;;;;;14.43;7.73;;;;;;;-141.59;100.00;61776.25;4941850;28;20214;-82
2022/01/17 10:13:15;;;;;;;12.87;7.13;;;;;;;-141.59;100.00;61776.25;4939498;28;20220;-83
2022/01/17 10:16:01;;;;;;;15.60;7.67;;;;;;;-141.59;100.00;61776.25;4941425;28;20226;-82
2022/01/17 10:18:48;;;;;;;14.67;8.20;;;;;;;-141.59;100.00;61776.25;4957513;28;20294;-83
2022/01/17 10:21:30;;;;;;;11.57;7.70;;;;;;;-141.59;100.00;61776.25;4946580;29;20225;-83
2022/01/17 10:35:13;;;;;;;10.70;7.23;;;;;;;-141.59;100.00;61776.25;4944625;28;20209;-81
2022/01/17 10:37:40;;;;;;;14.27;7.77;;;;;;;-141.59;100.00;61776.25;4945568;28;20273;-82
2022/01/17 10:40:12;;;;;;;11.53;6.87;;;;;;;-141.59;100.00;61776.25;4948159;28;20221;-83
2022/01/17 10:42:42;;;;;;;10.40;7.47;;;;;;;-141.59;100.00;61776.25;4961037;28;20312;-83
2022/01/17 10:45:11;;;;;;;11.50;6.20;;;;;;;-141.59;100.00;61776.25;4945248;29;20213;-83
2022/01/17 10:47:43;;;;;;;12.30;7.10;;;;;;;-141.59;100.00;61776.25;4956320;28;20223;-83
2022/01/17 10:50:15;;;;;;;11.67;7.17;;;;;;;-141.59;100.00;61776.25;4943103;28;20206;-82
2022/01/17 10:52:46;;;;;;;9.87;6.57;;;;;;;-141.59;100.00;61776.25;4943373;28;20205;-82
2022/01/17 10:55:16;;;;;;;11.47;6.30;;;;;;;-141.59;100.00;61776.25;4941547;28;20277;-82
2022/01/17 10:57:46;;;;;;;11.97;6.50;;;;;;;-141.59;100.00;61776.25;4953192;28;20277;-83
2022/01/17 11:00:16;;;;;;;8.00;5.67;;;;;;;-141.59;100.00;61776.25;4945953;28;20213;-83
2022/01/17 11:02:46;;;;;;;7.57;4.70;;;;;;;-141.59;100.00;61776.25;4941481;28;20209;-83
2022/01/17 11:05:15;;;;;;;6.83;5.17;;;;;;;-141.59;100.00;61776.25;4942992;28;20294;-83
2022/01/17 11:07:43;;;;;;;9.37;5.43;;;;;;;-141.59;100.00;61776.25;4967112;28;20226;-81
2022/01/17 11:10:16;;;;;;;9.20;5.70;;;;;;;-141.59;100.00;61776.25;4960539;28;20193;-82
2022/01/17 11:12:44;;;;;;;8.83;5.27;;;;;;;-141.59;100.00;61776.25;4960097;28;20304;-83
2022/01/17 11:15:12;;;;;;;8.70;5.00;;;;;;;-141.59;100.00;61776.25;4961359;28;20210;-82
2022/01/17 11:17:49;;;;;;;8.87;5.37;;;;;;;-141.59;100.00;61776.25;4959989;28;20209;-83
2022/01/17 11:20:24;;;;;;;7.10;4.33;;;;;;;-141.59;100.00;61776.25;4954935;28;20209;-83
2022/01/17 11:22:54;;;;;;;7.10;4.23;;;;;;;-141.59;100.00;61776.25;4941928;29;20212;-83
2022/01/17 11:25:24;;;;;;;7.10;4.70;;;;;;;-141.59;100.00;61776.25;4955077;28;20193;-83
2022/01/17 11:27:51;;;;;;;6.73;4.47;;;;;;;-141.59;100.00;61776.25;4943124;28;20257;-82
2022/01/17 11:30:19;;;;;;;9.43;4.80;;;;;;;-141.59;100.00;61776.25;4941891;28;20218;-81